Latest Coastal Weather Observations for Browse Island

IDD60701

Issued at 11:31 pm CST Monday 6 July 2015 (issued every 10 minutes, with the page automatically refreshed every 10 minutes)

About coastal observations | Map of coastal stations | Coastal observations for NT | Marine services | Other Formats
Station Details ID: 200784 Name: BROWSE ISLAND Lat: -14.11 Lon: 123.55 Height: 3.7 m
Data from the previous 72 hours. | See also: Recent months for locations in Northern Territory
Date/Time
CST
Temp

°C
Wind Pressure Rain
since 9am
mm
Weather Cloud Vis
km
Sea
Height
m
Swell
Dir
 
Speed
knots
Gust
knots
hPa Trend Height
m
Period
s
Dir
06/11:30pm 26.2 SE 4 5 1012.7 - - - - - - - - -
06/11:00pm 26.1 SE 5 6 1012.7 - - - - - - - - -
06/10:30pm 25.6 SE 6 7 1012.8 - - - - - - - - -
06/10:00pm 25.5 ESE 7 8 1012.8 - - - - - - - - -
06/09:30pm 25.9 ESE 8 10 1012.9 - - - - - - - - -
06/09:00pm 26.1 ESE 9 11 1012.7 - - - - - - - - -
06/08:30pm 25.7 E 9 11 1012.7 - - - - - - - - -
06/08:00pm 25.9 E 9 11 1012.4 - - - - - - - - -
06/07:30pm 26.0 ESE 9 11 1012.2 - - - - - - - - -
06/07:00pm 26.0 ESE 9 10 1012.0 - - - - - - - - -
06/06:30pm 26.4 E 8 11 1011.8 - - - - - - - - -
06/06:00pm 26.6 ESE 7 10 1011.8 - - - - - - - - -
06/05:30pm 26.5 E 8 11 1011.6 - - - - - - - - -
06/05:00pm 26.9 E 8 10 1011.4 - - - - - - - - -
06/04:30pm 27.4 E 7 9 1011.5 - - - - - - - - -
06/04:00pm 27.4 E 7 9 1011.6 - - - - - - - - -
06/03:30pm 27.8 E 7 10 1011.8 - - - - - - - - -
06/03:00pm 27.7 ENE 6 8 1012.1 - - - - - - - - -
06/02:30pm 27.4 E 4 6 1012.3 - - - - - - - - -
06/02:00pm 28.1 ENE 4 7 1012.5 - - - - - - - - -
06/01:30pm 28.6 ESE 4 6 1012.9 - - - - - - - - -
06/01:00pm 27.4 ENE 5 8 1013.4 - - - - - - - - -
06/12:30pm 27.0 NE 6 7 1013.8 - - - - - - - - -
06/12:00pm 27.6 E 6 8 1014.2 - - - - - - - - -
06/11:30am 27.4 E 8 9 1014.5 - - - - - - - - -
06/11:00am 27.7 E 7 9 1014.6 - - - - - - - - -
06/10:30am 27.4 E 6 8 1014.7 - - - - - - - - -
06/10:00am 27.1 E 7 9 1014.7 - - - - - - - - -
06/09:30am 26.7 E 8 11 1014.7 - - - - - - - - -
06/09:00am 26.4 ENE 8 10 1014.3 - - - - - - - - -
06/08:30am 26.0 ENE 8 10 1014.0 - - - - - - - - -
06/08:00am 25.3 E 7 9 1013.8 - - - - - - - - -
06/07:30am 25.5 ESE 7 9 1013.5 - - - - - - - - -
06/07:00am 25.5 E 7 9 1013.3 - - - - - - - - -
06/06:30am 25.3 E 5 7 1012.9 - - - - - - - - -
06/06:00am 25.6 ESE 6 8 1012.9 - - - - - - - - -
06/05:30am 25.6 ESE 4 6 1012.8 - - - - - - - - -
06/05:00am 25.7 E 5 6 1012.6 - - - - - - - - -
06/04:30am 25.7 ENE 3 5 1012.4 - - - - - - - - -
06/04:00am 25.7 E 3 4 1012.6 - - - - - - - - -
06/03:30am 25.6 E 1 4 1012.6 - - - - - - - - -
06/03:00am 25.4 E 1 4 1012.9 - - - - - - - - -
06/02:30am 25.6 ESE 1 4 1013.3 - - - - - - - - -
06/02:00am 25.6 E 4 5 1013.5 - - - - - - - - -
06/01:30am 25.8 ENE 5 7 1013.6 - - - - - - - - -
06/01:00am 25.8 E 4 6 1013.5 - - - - - - - - -
06/12:30am 25.7 E 5 6 1013.4 - - - - - - - - -
06/12:00am 25.8 E 5 6 1013.5 - - - - - - - - -
 
Date/Time
CST
Temp

°C
Wind Pressure Rain
since 9am
mm
Weather Cloud Vis
km
Sea
Height
m
Swell
Dir
 
Speed
knots
Gust
knots
hPa Trend Height
m
Period
s
Dir
05/11:30pm 25.7 ENE 5 7 1013.6 - - - - - - - - -
05/11:00pm 25.7 E 5 7 1013.7 - - - - - - - - -
05/10:30pm 25.7 ENE 6 8 1013.7 - - - - - - - - -
05/10:00pm 25.5 NE 6 7 1013.7 - - - - - - - - -
05/09:30pm 25.4 NE 5 8 1013.7 - - - - - - - - -
05/09:00pm 25.5 NE 8 10 1013.5 - - - - - - - - -
05/08:30pm 25.5 NE 8 11 1013.3 - - - - - - - - -
05/08:00pm 25.5 NE 7 12 1013.0 - - - - - - - - -
05/07:30pm 26.0 NNE 7 9 1012.8 - - - - - - - - -
05/07:00pm 25.9 NNE 7 9 1012.6 - - - - - - - - -
05/06:30pm 26.2 NNE 7 9 1012.5 - - - - - - - - -
05/06:00pm 26.4 NE 7 10 1012.3 - - - - - - - - -
05/05:30pm 26.6 NNE 7 10 1012.2 - - - - - - - - -
05/05:00pm 27.2 NNE 7 9 1012.4 - - - - - - - - -
05/04:30pm 26.9 NNE 8 10 1012.6 - - - - - - - - -
05/04:00pm 27.1 NE 8 11 1012.7 - - - - - - - - -
05/03:30pm 26.6 NE 8 10 1013.0 - - - - - - - - -
05/03:00pm 28.4 NE 7 10 1013.1 - - - - - - - - -
05/02:30pm 26.9 NE 7 10 1013.4 - - - - - - - - -
05/02:00pm 27.6 NE 6 8 1013.8 - - - - - - - - -
05/01:30pm 27.7 ENE 6 8 1014.3 - - - - - - - - -
05/01:00pm 27.5 ENE 6 8 1014.8 - - - - - - - - -
05/12:30pm 27.4 NE 5 8 1015.1 - - - - - - - - -
05/12:00pm 27.3 ENE 6 7 1015.3 - - - - - - - - -
05/11:30am 26.9 NE 5 6 1015.5 - - - - - - - - -
05/11:00am 27.8 ENE 5 7 1015.6 - - - - - - - - -
05/10:30am 26.7 NE 4 5 1015.7 - - - - - - - - -
05/10:00am 26.6 NE 4 6 1015.5 - - - - - - - - -
05/09:30am 26.9 NNE 3 5 1015.5 - - - - - - - - -
05/09:00am 26.7 CALM 0 0 1015.3 - - - - - - - - -
05/08:30am 26.2 CALM 0 0 1015.2 - - - - - - - - -
05/08:00am 25.6 NE 1 3 1015.0 - - - - - - - - -
05/07:30am 25.0 CALM 0 0 1014.8 - - - - - - - - -
05/07:00am 25.3 ESE 1 3 1014.6 - - - - - - - - -
05/06:30am 25.3 E 4 5 1014.2 - - - - - - - - -
05/06:00am 25.5 ESE 4 6 1014.2 - - - - - - - - -
05/05:30am 25.3 ESE 4 6 1014.1 - - - - - - - - -
05/05:00am 25.4 SE 4 6 1014.1 - - - - - - - - -
05/04:30am 25.3 ESE 4 5 1014.0 - - - - - - - - -
05/04:00am 25.4 SE 3 4 1014.0 - - - - - - - - -
05/03:30am 25.3 ESE 3 4 1014.1 - - - - - - - - -
05/03:00am 25.4 E 4 5 1014.3 - - - - - - - - -
05/02:30am 25.4 ENE 4 6 1014.3 - - - - - - - - -
05/02:00am 25.5 ENE 4 5 1014.2 - - - - - - - - -
05/01:30am 25.5 NE 5 6 1014.2 - - - - - - - - -
05/01:00am 25.6 NE 4 5 1014.0 - - - - - - - - -
05/12:30am 25.6 NE 5 6 1014.2 - - - - - - - - -
05/12:00am 25.6 NNE 5 6 1014.2 - - - - - - - - -
 
Date/Time
CST
Temp

°C
Wind Pressure Rain
since 9am
mm
Weather Cloud Vis
km
Sea
Height
m
Swell
Dir
 
Speed
knots
Gust
knots
hPa Trend Height
m
Period
s
Dir
04/11:30pm 25.7 NNE 5 6 1014.3 - - - - - - - - -
04/11:00pm 25.7 NNE 6 7 1014.4 - - - - - - - - -
04/10:30pm 25.8 NE 5 8 1014.4 - - - - - - - - -
04/10:00pm 25.7 NE 6 8 1014.3 - - - - - - - - -
04/09:30pm 25.9 ENE 7 8 1014.0 - - - - - - - - -
04/09:00pm 25.8 ENE 8 10 1013.8 - - - - - - - - -
04/08:30pm 25.9 ENE 8 11 1013.6 - - - - - - - - -
04/08:00pm 25.8 ENE 9 11 1013.2 - - - - - - - - -
04/07:30pm 26.0 ENE 10 12 1013.0 - - - - - - - - -
04/07:00pm 26.1 ENE 10 12 1012.9 - - - - - - - - -
04/06:30pm 26.4 E 11 14 1012.5 - - - - - - - - -
04/06:00pm 26.7 E 11 14 1012.4 - - - - - - - - -
04/05:30pm 27.0 E 13 15 1012.2 - - - - - - - - -
04/05:00pm 27.3 E 13 16 1012.2 - - - - - - - - -
04/04:30pm 27.4 E 14 17 1012.2 - - - - - - - - -
04/04:00pm 27.6 E 14 17 1012.4 - - - - - - - - -
04/03:30pm 27.7 E 14 17 1012.7 - - - - - - - - -
04/03:00pm 27.9 E 15 19 1013.0 - - - - - - - - -
04/02:30pm 28.1 E 17 21 1013.3 - - - - - - - - -
04/02:00pm 28.0 E 16 19 1013.6 - - - - - - - - -
04/01:30pm 28.3 E 14 18 1014.1 - - - - - - - - -
04/01:00pm 28.9 ENE 14 19 1014.5 - - - - - - - - -
04/12:30pm 27.9 ENE 11 16 1014.9 - - - - - - - - -
04/12:00pm 27.9 E 11 14 1015.2 - - - - - - - - -
04/11:30am 27.8 ENE 12 15 1015.4 - - - - - - - - -
04/11:00am 28.3 ENE 10 12 1015.6 - - - - - - - - -
04/10:30am 27.7 ENE 10 11 1015.7 - - - - - - - - -
04/10:00am 27.6 ENE 9 11 1015.8 - - - - - - - - -
04/09:30am 27.3 ENE 9 12 1015.5 - - - - - - - - -
04/09:00am 27.0 ENE 9 11 1015.2 - - - - - - - - -
04/08:30am 26.5 ENE 8 10 1014.9 - - - - - - - - -
04/08:00am 26.3 ENE 7 9 1014.8 - - - - - - - - -
04/07:30am 26.2 ENE 8 9 1014.3 - - - - - - - - -
04/07:00am 26.3 E 7 8 1014.0 - - - - - - - - -
04/06:30am 26.3 ENE 8 10 1014.0 - - - - - - - - -
04/06:00am 26.4 ENE 8 10 1013.9 - - - - - - - - -
04/05:30am 26.3 ENE 9 11 1013.9 - - - - - - - - -
04/05:00am 26.4 ENE 8 10 1013.8 - - - - - - - - -
04/04:30am 26.5 ENE 9 10 1013.9 - - - - - - - - -
04/04:00am 26.5 NE 10 12 1014.1 - - - - - - - - -
04/03:30am 26.6 NE 10 12 1014.0 - - - - - - - - -
04/03:00am 26.8 E 9 11 1014.2 - - - - - - - - -
04/02:30am 26.7 ENE 8 10 1014.2 - - - - - - - - -
04/02:00am 26.7 ENE 9 10 1014.4 - - - - - - - - -
04/01:30am 26.8 ENE 8 10 1014.5 - - - - - - - - -

Other Formats:

Comma delimited format used in spreadsheet applications
http://www.bom.gov.au/fwo/IDD60701/IDD60701.94103.axf

JavaScript Object Notation format (JSON) in row-major order
http://www.bom.gov.au/fwo/IDD60701/IDD60701.94103.json